Time;durP1;ratioP1;P1;durP2;ratioP2;P2;SDS_P1;SDS_P2;PMS_P1;PMS_P2;Temp;Humidity;BMP_temperature;BMP_pressure;BME280_temperature;BME280_humidity;BME280_pressure;Samples;Min_cycle;Max_cycle;Signal;HPM_P1;HPM_P2
2022/05/01 00:02:10;;;;;;;14.05;8.98;;;;;;;;;;4995193;28;20548;-58
2022/05/01 00:04:35;;;;;;;14.27;10.35;;;4.80;99.90;;;;;;4995177;28;20050;-59
2022/05/01 00:07:01;;;;;;;14.00;10.68;;;;;;;;;;4993960;28;20042;-58
2022/05/01 00:09:27;;;;;;;16.02;10.10;;;4.90;99.90;;;;;;4993626;28;20050;-58
2022/05/01 00:11:53;;;;;;;14.13;10.25;;;4.70;99.90;;;;;;4995254;28;20050;-58
2022/05/01 00:14:19;;;;;;;12.57;9.15;;;5.10;99.90;;;;;;4994830;28;20038;-57
2022/05/01 00:16:45;;;;;;;14.13;10.40;;;4.90;99.90;;;;;;4995396;28;20372;-58
2022/05/01 00:19:10;;;;;;;13.73;10.38;;;5.10;99.90;;;;;;4994872;28;20049;-58
2022/05/01 00:21:37;;;;;;;14.40;10.93;;;4.80;99.90;;;;;;4995218;28;20058;-59
2022/05/01 00:24:04;;;;;;;14.95;10.32;;;5.10;99.90;;;;;;4994813;28;20129;-58
2022/05/01 00:26:30;;;;;;;13.10;10.30;;;5.00;99.90;;;;;;4994742;28;20046;-58
2022/05/01 00:28:56;;;;;;;15.02;10.48;;;;;;;;;;4993396;28;20457;-58
2022/05/01 00:31:22;;;;;;;15.05;9.07;;;4.80;99.90;;;;;;4993631;28;20046;-58
2022/05/01 00:36:32;;;;;;;13.73;9.90;;;;;;;;;;4995247;28;20104;-58
2022/05/01 00:39:06;;;;;;;10.98;8.25;;;4.50;99.90;;;;;;4994458;28;20133;-58
2022/05/01 00:41:33;;;;;;;12.63;9.32;;;4.20;99.90;;;;;;4994520;28;20130;-59
2022/05/01 00:44:04;;;;;;;15.82;10.90;;;;;;;;;;4994480;28;20054;-58
2022/05/01 00:46:35;;;;;;;15.32;10.85;;;4.30;99.90;;;;;;4994404;28;20054;-58
2022/05/01 00:49:02;;;;;;;15.50;10.15;;;4.20;99.90;;;;;;4993229;28;20093;-58
2022/05/01 00:51:30;;;;;;;14.75;10.45;;;4.60;99.90;;;;;;4994370;28;20129;-58
2022/05/01 00:53:57;;;;;;;16.58;11.27;;;4.30;99.90;;;;;;4994206;28;20471;-59
2022/05/01 00:56:24;;;;;;;16.48;12.20;;;;;;;;;;4994983;28;20054;-59
2022/05/01 00:58:51;;;;;;;18.70;13.27;;;4.30;99.90;;;;;;4994196;28;20053;-58
2022/05/01 01:01:19;;;;;;;13.95;10.73;;;4.30;99.90;;;;;;4994185;28;20058;-59
2022/05/01 01:03:45;;;;;;;17.85;12.65;;;4.10;99.90;;;;;;4994179;28;20046;-58
2022/05/01 01:06:11;;;;;;;16.63;12.10;;;;;;;;;;4994053;28;20537;-58
2022/05/01 01:08:37;;;;;;;;;;;3.90;99.90;;;;;;4994483;28;20188;-58
2022/05/01 01:11:03;;;;;;;14.10;10.43;;;4.20;99.90;;;;;;4994078;28;20016;-58
2022/05/01 01:13:30;;;;;;;13.80;11.10;;;;;;;;;;4993866;28;20431;-58
2022/05/01 01:15:56;;;;;;;16.30;12.32;;;4.00;99.90;;;;;;4994426;28;20058;-58
2022/05/01 01:18:23;;;;;;;19.73;15.07;;;;;;;;;;4993883;28;20057;-59
2022/05/01 01:20:51;;;;;;;18.88;13.98;;;;;;;;;;4994224;28;20068;-58
2022/05/01 01:23:17;;;;;;;20.95;15.32;;;;;;;;;;4994706;28;20054;-60
2022/05/01 01:25:43;;;;;;;21.48;16.08;;;4.30;99.90;;;;;;4993536;28;20509;-58
2022/05/01 01:28:09;;;;;;;24.08;17.15;;;3.90;99.90;;;;;;4993834;28;20050;-58
2022/05/01 01:33:28;;;;;;;18.67;15.25;;;;;;;;;;4993800;28;20105;-58
2022/05/01 01:35:56;;;;;;;14.98;11.98;;;3.80;99.90;;;;;;4993967;28;20471;-59
2022/05/01 01:38:22;;;;;;;17.20;12.43;;;;;;;;;;4993486;28;20495;-58
2022/05/01 01:40:52;;;;;;;14.18;11.63;;;4.10;99.90;;;;;;4993832;28;20086;-58
2022/05/01 01:43:20;;;;;;;15.73;12.32;;;;;;;;;;4994269;28;20109;-59
2022/05/01 01:45:46;;;;;;;17.95;13.98;;;3.70;99.90;;;;;;4993887;28;20062;-58
2022/05/01 01:48:13;;;;;;;21.88;15.05;;;4.00;99.90;;;;;;4994441;28;20096;-58
2022/05/01 01:50:40;;;;;;;20.60;14.80;;;;;;;;;;4994162;28;20059;-58
2022/05/01 01:53:06;;;;;;;;;;;;;;;;;;4994054;28;20466;-58
2022/05/01 01:55:32;;;;;;;20.13;14.95;;;;;;;;;;4993549;28;20362;-58
2022/05/01 01:57:58;;;;;;;22.15;15.30;;;;;;;;;;4994107;28;20129;-59
2022/05/01 02:00:24;;;;;;;18.35;14.13;;;4.30;99.90;;;;;;4993310;28;20509;-58
2022/05/01 02:02:59;;;;;;;;;;;4.30;99.90;;;;;;4993931;28;20061;-59
2022/05/01 02:05:26;;;;;;;16.73;13.95;;;4.30;99.90;;;;;;4994057;28;20302;-58
2022/05/01 02:07:52;;;;;;;;;;;4.20;99.90;;;;;;4994453;28;20054;-58
2022/05/01 02:10:18;;;;;;;19.88;15.02;;;;;;;;;;4993771;28;20281;-59
2022/05/01 02:12:44;;;;;;;24.77;15.23;;;4.00;99.90;;;;;;4993474;28;20097;-59
2022/05/01 02:15:10;;;;;;;22.17;14.82;;;;;;;;;;4993342;28;20429;-59
2022/05/01 02:17:38;;;;;;;18.30;14.00;;;4.40;99.90;;;;;;4993390;28;20137;-59
2022/05/01 02:20:04;;;;;;;19.10;14.18;;;;;;;;;;4993475;28;20085;-59
2022/05/01 02:22:30;;;;;;;;;;;4.40;99.90;;;;;;4994805;28;20093;-59
2022/05/01 02:24:56;;;;;;;21.40;15.73;;;4.30;99.90;;;;;;4993293;28;19976;-59
2022/05/01 02:27:21;;;;;;;21.83;14.95;;;4.70;99.90;;;;;;4992110;28;20054;-59
2022/05/01 02:29:47;;;;;;;22.17;15.50;;;4.30;99.90;;;;;;4993372;28;20438;-60
2022/05/01 02:32:13;;;;;;;19.33;15.00;;;4.40;99.90;;;;;;4995383;28;20101;-59
2022/05/01 02:34:40;;;;;;;20.98;14.90;;;4.60;99.90;;;;;;4996771;28;20049;-59
2022/05/01 02:37:06;;;;;;;;;;;4.40;99.90;;;;;;4997285;28;20054;-59
2022/05/01 02:39:35;;;;;;;19.65;14.40;;;4.40;99.90;;;;;;4997039;28;19922;-59
2022/05/01 02:42:01;;;;;;;20.95;14.90;;;4.20;99.90;;;;;;4996757;28;20046;-59
2022/05/01 02:44:27;;;;;;;19.73;14.27;;;;;;;;;;4996685;28;20045;-59
2022/05/01 02:46:54;;;;;;;17.95;13.77;;;;;;;;;;4996630;28;20057;-60
2022/05/01 02:49:21;;;;;;;22.52;14.70;;;;;;;;;;4997021;28;20061;-58
2022/05/01 02:51:47;;;;;;;20.13;14.35;;;;;;;;;;4996549;28;20144;-59
2022/05/01 02:54:13;;;;;;;15.30;12.07;;;4.20;99.90;;;;;;4995195;28;20078;-60
2022/05/01 02:56:38;;;;;;;13.07;10.90;;;4.00;99.90;;;;;;4996423;28;20089;-59
2022/05/01 02:59:09;;;;;;;19.00;12.32;;;3.70;99.90;;;;;;4996887;28;20363;-59
2022/05/01 03:01:38;;;;;;;18.27;12.82;;;3.90;99.90;;;;;;4996856;28;20069;-59
2022/05/01 03:04:04;;;;;;;17.67;13.63;;;;;;;;;;4996259;28;20077;-59
2022/05/01 03:06:30;;;;;;;;;;;4.10;99.90;;;;;;4996635;28;20050;-59
2022/05/01 03:08:56;;;;;;;16.70;12.50;;;3.70;99.90;;;;;;4994875;28;19932;-59
2022/05/01 03:11:22;;;;;;;16.77;12.70;;;;;;;;;;4995847;28;20054;-59
2022/05/01 03:13:48;;;;;;;19.42;14.30;;;;;;;;;;4996454;28;20109;-60
2022/05/01 03:16:14;;;;;;;23.98;15.07;;;3.60;99.90;;;;;;4996086;28;20148;-59
2022/05/01 03:24:10;;;;;;;22.90;15.73;;;;;;;;;;4995912;28;20058;-59
2022/05/01 03:26:36;;;;;;;24.80;15.98;;;;;;;;;;4996450;28;20077;-59
2022/05/01 03:29:02;;;;;;;24.02;15.43;;;;;;;;;;4995813;28;20058;-59
2022/05/01 03:31:28;;;;;;;22.13;14.48;;;3.80;99.90;;;;;;4995964;28;20050;-60
2022/05/01 03:33:55;;;;;;;20.43;14.73;;;;;;;;;;4995660;28;20478;-60
2022/05/01 03:36:21;;;;;;;21.30;14.80;;;3.50;99.90;;;;;;4995483;28;20281;-59
2022/05/01 03:38:47;;;;;;;21.08;14.65;;;;;;;;;;4995747;28;20046;-59
2022/05/01 03:41:14;;;;;;;;;;;3.60;99.90;;;;;;4995636;28;20498;-59
2022/05/01 03:43:40;;;;;;;18.92;14.18;;;;;;;;;;4994512;28;19921;-59
2022/05/01 03:46:05;;;;;;;18.83;13.77;;;3.50;99.90;;;;;;4994302;28;20054;-59
2022/05/01 03:48:32;;;;;;;17.80;13.93;;;;;;;;;;4996227;28;20141;-59
2022/05/01 03:50:58;;;;;;;20.75;15.65;;;3.30;99.90;;;;;;4995383;28;20050;-59
2022/05/01 03:53:25;;;;;;;24.13;16.55;;;;;;;;;;4995371;28;20050;-59
2022/05/01 03:55:51;;;;;;;24.25;17.65;;;;;;;;;;4994922;28;20428;-59
2022/05/01 03:58:17;;;;;;;;;;;3.50;99.90;;;;;;4995731;28;20042;-58
2022/05/01 04:00:47;;;;;;;26.90;19.15;;;;;;;;;;4995224;28;19926;-59
2022/05/01 04:03:16;;;;;;;25.58;17.52;;;;;;;;;;4995203;28;20050;-59
2022/05/01 04:05:43;;;;;;;24.88;18.00;;;;;;;;;;4995137;28;20049;-58
2022/05/01 04:08:09;;;;;;;;;;;2.90;99.90;;;;;;4995478;28;20081;-60
2022/05/01 04:10:39;;;;;;;18.42;13.40;;;;;;;;;;4994976;28;20012;-59
2022/05/01 04:13:06;;;;;;;17.60;13.65;;;;;;;;;;4995740;28;20133;-59
2022/05/01 04:15:31;;;;;;;18.70;13.27;;;3.20;99.90;;;;;;4993702;28;20085;-59
2022/05/01 04:17:58;;;;;;;18.48;13.07;;;;;;;;;;4995740;28;20075;-59
2022/05/01 04:20:25;;;;;;;18.92;14.10;;;;;;;;;;4994847;28;20050;-60
2022/05/01 04:22:51;;;;;;;25.60;15.80;;;2.90;99.90;;;;;;4994579;28;20561;-59
2022/05/01 04:25:18;;;;;;;25.42;16.95;;;;;;;;;;4994834;28;20042;-59
2022/05/01 04:27:49;;;;;;;23.85;17.13;;;3.40;99.90;;;;;;4994718;28;20050;-60
2022/05/01 04:30:16;;;;;;;26.27;17.58;;;;;;;;;;4994689;28;20046;-59
2022/05/01 04:32:51;;;;;;;161.93;20.45;;;;;;;;;;4995031;28;20050;-59
2022/05/01 04:35:26;;;;;;;127.45;15.80;;;;;;;;;;4994505;28;20081;-59
2022/05/01 04:37:52;;;;;;;89.88;15.30;;;3.30;99.90;;;;;;4994648;28;20047;-59
2022/05/01 04:40:19;;;;;;;20.77;13.82;;;3.30;99.90;;;;;;4994558;28;20042;-59
2022/05/01 04:42:45;;;;;;;25.60;14.27;;;;;;;;;;4994495;28;20125;-59
2022/05/01 04:45:11;;;;;;;15.95;13.57;;;;;;;;;;4994155;28;20610;-59
2022/05/01 04:47:39;;;;;;;18.42;12.45;;;;;;;;;;4994093;28;20495;-59
2022/05/01 04:50:06;;;;;;;12.93;11.32;;;3.50;99.90;;;;;;4994572;28;20534;-60
2022/05/01 04:52:32;;;;;;;13.82;12.15;;;;;;;;;;4994246;28;20479;-59
2022/05/01 04:54:57;;;;;;;13.57;11.60;;;3.30;99.90;;;;;;4993959;28;20089;-59
2022/05/01 04:57:23;;;;;;;13.93;12.43;;;3.30;99.90;;;;;;4993357;28;20392;-59
2022/05/01 04:59:49;;;;;;;12.60;11.30;;;;;;;;;;4994217;28;20734;-59
2022/05/01 05:02:15;;;;;;;12.45;11.15;;;;;;;;;;4994043;28;20749;-59
2022/05/01 05:04:41;;;;;;;12.63;11.32;;;3.70;99.90;;;;;;4993800;28;20511;-59
2022/05/01 05:07:07;;;;;;;12.05;10.85;;;;;;;;;;4993783;28;20125;-59
2022/05/01 05:12:17;;;;;;;11.75;10.55;;;3.60;99.90;;;;;;4994709;28;20050;-59
2022/05/01 05:14:44;;;;;;;12.30;10.98;;;;;;;;;;4994200;28;20462;-59
2022/05/01 05:17:10;;;;;;;16.23;11.80;;;3.90;99.90;;;;;;4994043;28;20050;-59
2022/05/01 05:19:39;;;;;;;16.02;13.35;;;;;;;;;;4992761;28;20054;-59
2022/05/01 05:22:05;;;;;;;20.40;15.13;;;;;;;;;;4992672;28;20058;-61
2022/05/01 05:24:31;;;;;;;21.55;14.90;;;4.40;99.90;;;;;;4994183;28;20134;-59
2022/05/01 05:26:57;;;;;;;17.58;14.70;;;4.40;99.90;;;;;;4994192;28;20131;-58
2022/05/01 05:29:23;;;;;;;;;;;4.30;99.90;;;;;;4994366;28;20038;-59
2022/05/01 05:31:49;;;;;;;18.83;15.05;;;4.80;99.90;;;;;;4994078;28;19928;-58
2022/05/01 05:34:15;;;;;;;25.90;18.45;;;;;;;;;;4992763;28;20046;-58
2022/05/01 05:36:40;;;;;;;19.30;15.23;;;4.40;99.90;;;;;;4993972;28;20054;-59
2022/05/01 05:39:06;;;;;;;19.20;14.77;;;4.80;99.90;;;;;;4993946;28;20073;-59
2022/05/01 05:41:32;;;;;;;22.95;17.00;;;4.60;99.90;;;;;;4993925;28;20623;-59
2022/05/01 05:43:57;;;;;;;21.67;16.58;;;4.90;99.90;;;;;;4993828;28;20050;-59
2022/05/01 05:46:23;;;;;;;22.08;17.30;;;5.20;99.90;;;;;;4993693;28;20129;-59
2022/05/01 05:48:49;;;;;;;22.33;17.05;;;5.30;99.90;;;;;;4993700;28;20046;-59
2022/05/01 05:51:15;;;;;;;23.20;16.55;;;;;;;;;;4993647;28;20042;-59
2022/05/01 05:53:40;;;;;;;21.27;16.45;;;5.40;99.90;;;;;;4993638;28;20050;-60
2022/05/01 05:56:06;;;;;;;21.42;16.73;;;5.70;99.90;;;;;;4993696;28;20049;-59
2022/05/01 05:58:32;;;;;;;28.08;17.15;;;5.70;99.90;;;;;;4994257;28;20046;-59
2022/05/01 06:00:57;;;;;;;27.60;18.95;;;5.80;99.90;;;;;;4993602;28;20046;-59
2022/05/01 06:03:23;;;;;;;26.77;19.48;;;6.20;99.90;;;;;;4993624;28;20050;-59
2022/05/01 06:05:49;;;;;;;27.90;18.58;;;6.30;99.90;;;;;;4993370;28;20072;-59
2022/05/01 06:08:15;;;;;;;29.55;20.23;;;;;;;;;;4997104;28;20101;-60
2022/05/01 06:10:41;;;;;;;29.40;19.50;;;6.90;99.90;;;;;;4996940;28;20494;-60
2022/05/01 06:13:07;;;;;;;26.38;19.38;;;6.80;99.90;;;;;;4996300;28;20109;-59
2022/05/01 06:15:33;;;;;;;26.30;19.00;;;7.20;99.90;;;;;;4997213;28;20046;-59
2022/05/01 06:17:58;;;;;;;27.35;18.50;;;7.40;99.90;;;;;;4996020;28;20474;-59
2022/05/01 06:20:26;;;;;;;26.83;17.75;;;7.80;99.90;;;;;;4997095;28;20471;-59
2022/05/01 06:22:52;;;;;;;25.77;18.45;;;7.50;99.90;;;;;;4996892;28;20062;-59
2022/05/01 06:25:18;;;;;;;21.02;16.83;;;;;;;;;;4997030;28;20069;-59
2022/05/01 06:27:44;;;;;;;26.55;16.65;;;8.10;99.90;;;;;;4996965;28;20125;-59
2022/05/01 06:30:11;;;;;;;22.20;16.33;;;8.00;99.90;;;;;;4997269;28;20415;-59
2022/05/01 06:32:41;;;;;;;24.27;15.80;;;8.40;99.90;;;;;;4995991;28;20402;-59
2022/05/01 06:35:08;;;;;;;23.83;14.65;;;8.30;99.90;;;;;;4996781;28;20038;-59
2022/05/01 06:37:35;;;;;;;21.70;15.57;;;8.70;99.90;;;;;;4979614;28;20058;-59
2022/05/01 06:40:03;;;;;;;21.73;14.52;;;8.70;99.90;;;;;;4996792;28;20054;-60
2022/05/01 06:42:30;;;;;;;19.90;12.77;;;8.90;99.90;;;;;;4997292;28;20054;-59
2022/05/01 06:44:56;;;;;;;17.60;11.85;;;9.10;99.90;;;;;;4996669;28;20054;-61
2022/05/01 06:47:21;;;;;;;16.25;12.10;;;9.60;99.90;;;;;;4996850;28;20049;-59
2022/05/01 06:49:47;;;;;;;19.67;12.68;;;9.70;99.90;;;;;;4996703;28;20046;-59
2022/05/01 06:52:12;;;;;;;14.07;10.60;;;9.50;99.90;;;;;;4995897;28;20042;-59
2022/05/01 06:54:39;;;;;;;16.50;11.40;;;9.90;99.90;;;;;;4996976;28;20161;-59
2022/05/01 06:57:05;;;;;;;20.38;12.18;;;10.40;99.90;;;;;;4996506;28;20054;-59
2022/05/01 06:59:31;;;;;;;15.30;11.35;;;9.70;99.90;;;;;;4996421;28;20046;-60
2022/05/01 07:01:56;;;;;;;16.95;11.80;;;9.70;99.90;;;;;;4996351;28;20133;-59
2022/05/01 07:04:22;;;;;;;19.48;12.50;;;9.90;99.90;;;;;;4996864;28;20043;-59
2022/05/01 07:06:48;;;;;;;17.95;10.70;;;9.60;99.90;;;;;;4996295;28;20050;-59
2022/05/01 07:09:13;;;;;;;16.77;11.35;;;10.20;99.90;;;;;;4996261;28;20466;-59
2022/05/01 07:11:39;;;;;;;19.88;11.38;;;10.50;99.90;;;;;;4996197;28;20092;-59
2022/05/01 07:14:05;;;;;;;13.90;8.73;;;10.60;99.90;;;;;;4996882;28;20049;-59
2022/05/01 07:16:30;;;;;;;10.60;7.68;;;11.00;99.90;;;;;;4996221;28;20097;-59
2022/05/01 07:18:56;;;;;;;9.55;6.43;;;10.40;99.90;;;;;;4995209;28;20073;-60
2022/05/01 07:21:22;;;;;;;10.02;6.32;;;9.90;99.90;;;;;;4996483;28;20065;-59
2022/05/01 07:23:47;;;;;;;9.50;6.57;;;10.10;99.90;;;;;;4994884;28;20482;-60
2022/05/01 07:26:13;;;;;;;9.48;6.85;;;10.00;99.90;;;;;;4996493;28;20065;-58
2022/05/01 07:28:39;;;;;;;13.05;8.23;;;10.20;99.90;;;;;;4995865;28;20050;-59
2022/05/01 07:31:05;;;;;;;10.30;6.30;;;10.00;99.90;;;;;;4995593;28;20466;-59
2022/05/01 07:33:31;;;;;;;11.02;6.45;;;11.10;99.90;;;;;;4995759;28;20042;-59
2022/05/01 07:35:58;;;;;;;6.78;5.63;;;9.90;99.90;;;;;;4995905;28;20065;-59
2022/05/01 07:38:24;;;;;;;11.30;6.90;;;9.40;99.90;;;;;;4995863;28;20096;-59
2022/05/01 07:40:49;;;;;;;9.18;6.60;;;10.00;99.90;;;;;;4995707;28;20501;-59
2022/05/01 07:43:15;;;;;;;12.45;6.82;;;10.10;99.90;;;;;;4995650;28;20093;-59
2022/05/01 07:45:43;;;;;;;7.35;5.90;;;10.10;99.90;;;;;;4995573;28;20038;-59
2022/05/01 07:48:08;;;;;;;8.68;6.32;;;10.40;99.90;;;;;;4996058;28;20050;-59
2022/05/01 07:50:34;;;;;;;9.20;5.90;;;11.60;99.90;;;;;;4995481;28;20116;-59
2022/05/01 07:53:00;;;;;;;9.60;6.38;;;10.50;99.90;;;;;;4995993;28;20387;-59
2022/05/01 07:55:26;;;;;;;8.48;6.00;;;12.20;99.90;;;;;;4994135;28;20050;-59
2022/05/01 07:57:52;;;;;;;8.38;6.30;;;10.80;99.90;;;;;;4995045;28;20576;-60
2022/05/01 08:00:17;;;;;;;9.57;6.78;;;11.80;99.90;;;;;;4995602;28;20085;-59
2022/05/01 08:05:29;;;;;;;10.45;7.43;;;11.30;99.90;;;;;;4994876;28;20482;-59
2022/05/01 08:07:57;;;;;;;8.90;6.53;;;11.80;99.90;;;;;;4995177;28;20054;-59
2022/05/01 08:10:22;;;;;;;9.23;6.32;;;11.20;99.90;;;;;;4995419;28;20054;-59
2022/05/01 08:12:48;;;;;;;13.45;6.72;;;11.40;99.90;;;;;;4995108;28;20042;-59
2022/05/01 08:15:20;;;;;;;7.78;6.10;;;12.00;99.90;;;;;;4995751;28;20174;-59
2022/05/01 08:17:46;;;;;;;9.73;6.10;;;11.60;99.90;;;;;;4995543;28;20061;-59
2022/05/01 08:23:06;;;;;;;7.53;6.30;;;12.70;99.90;;;;;;4994908;28;20090;-60
2022/05/01 08:25:33;;;;;;;8.00;6.20;;;11.90;99.90;;;;;;4994515;28;20498;-60
2022/05/01 08:28:00;;;;;;;8.55;6.22;;;11.70;99.90;;;;;;4994840;28;20050;-59
2022/05/01 08:30:26;;;;;;;9.05;6.72;;;11.70;99.90;;;;;;4994181;28;20076;-59
2022/05/01 08:32:52;;;;;;;7.78;5.78;;;11.90;99.90;;;;;;4994817;28;20371;-59
2022/05/01 08:35:17;;;;;;;10.10;6.45;;;12.10;99.90;;;;;;4994607;28;20043;-60
2022/05/01 08:37:43;;;;;;;8.35;6.28;;;11.50;99.90;;;;;;4994330;28;20129;-59
2022/05/01 08:40:09;;;;;;;7.72;6.05;;;12.00;99.90;;;;;;4994804;28;20050;-59
2022/05/01 08:42:36;;;;;;;;;;;12.10;99.90;;;;;;4995245;28;20109;-60
2022/05/01 08:45:09;;;;;;;7.93;5.90;;;11.80;99.90;;;;;;4994597;28;20354;-58
2022/05/01 08:48:00;;;;;;;7.47;5.90;;;12.10;99.90;;;;;;4994837;28;20442;-59
2022/05/01 08:50:27;;;;;;;10.02;6.10;;;11.70;99.90;;;;;;4993777;28;20054;-59
2022/05/01 08:52:55;;;;;;;10.90;6.22;;;11.50;99.90;;;;;;4994681;28;20129;-59
2022/05/01 08:55:22;;;;;;;10.90;5.80;;;12.60;99.90;;;;;;4993036;28;20047;-59
2022/05/01 08:57:48;;;;;;;11.13;6.47;;;11.60;99.90;;;;;;4994297;28;20054;-60
2022/05/01 09:00:16;;;;;;;9.85;6.25;;;11.70;99.90;;;;;;4994583;28;20046;-59
2022/05/01 09:02:43;;;;;;;12.05;6.93;;;11.60;99.90;;;;;;4994279;28;20050;-59
2022/05/01 09:05:11;;;;;;;9.30;6.03;;;12.40;99.90;;;;;;4994943;28;20424;-59
2022/05/01 09:07:37;;;;;;;6.53;5.68;;;12.30;99.90;;;;;;4994910;28;20428;-60
2022/05/01 09:10:04;;;;;;;7.47;5.43;;;12.00;99.90;;;;;;4994402;28;20049;-59
2022/05/01 09:15:27;;;;;;;7.97;6.28;;;12.40;99.90;;;;;;4994060;28;20046;-59
2022/05/01 09:18:05;;;;;;;7.40;6.57;;;12.20;99.90;;;;;;4994921;28;20096;-60
2022/05/01 09:20:31;;;;;;;8.32;6.57;;;11.80;99.90;;;;;;4994073;28;20051;-59
2022/05/01 09:22:59;;;;;;;8.63;6.55;;;12.10;99.90;;;;;;4993925;28;20498;-59
2022/05/01 09:25:27;;;;;;;8.57;5.80;;;12.20;99.90;;;;;;4993530;28;20065;-59
2022/05/01 09:27:57;;;;;;;10.35;5.72;;;11.90;99.90;;;;;;4993940;28;20053;-61
2022/05/01 09:30:33;;;;;;;7.57;5.60;;;12.10;99.90;;;;;;4995030;28;20138;-60
2022/05/01 09:33:00;;;;;;;;;;;11.90;99.90;;;;;;4994698;28;20442;-59
2022/05/01 09:35:34;;;;;;;8.97;6.10;;;12.20;99.90;;;;;;4993881;28;19948;-59
2022/05/01 09:38:21;;;;;;;6.97;4.65;;;11.90;99.90;;;;;;4994383;28;20370;-59
2022/05/01 09:40:49;;;;;;;7.65;5.82;;;12.30;99.90;;;;;;4994415;28;20058;-59
2022/05/01 09:43:36;;;;;;;9.90;5.18;;;12.70;99.90;;;;;;4997623;28;20397;-59
2022/05/01 09:46:18;;;;;;;;;;;12.90;99.90;;;;;;4998152;28;20048;-59
2022/05/01 09:49:05;;;;;;;7.55;5.90;;;12.70;99.90;;;;;;4997886;28;19987;-60
2022/05/01 09:51:35;;;;;;;9.25;6.00;;;13.50;99.90;;;;;;4997993;28;20122;-60
2022/05/01 09:54:03;;;;;;;7.57;6.28;;;12.90;99.90;;;;;;4997669;28;20085;-59
2022/05/01 09:56:43;;;;;;;6.35;5.57;;;13.00;99.90;;;;;;4997666;28;20061;-60
2022/05/01 09:59:09;;;;;;;7.75;5.65;;;13.30;99.90;;;;;;4997680;28;20054;-59
2022/05/01 10:01:35;;;;;;;6.70;6.00;;;12.70;99.90;;;;;;4997585;28;20050;-59
2022/05/01 10:04:04;;;;;;;9.75;6.30;;;12.40;99.90;;;;;;4997488;28;20042;-59
2022/05/01 10:06:31;;;;;;;9.77;5.47;;;12.30;99.90;;;;;;4997742;28;20404;-59
2022/05/01 10:08:58;;;;;;;8.00;5.35;;;12.50;99.90;;;;;;4997464;28;20069;-59
2022/05/01 10:11:25;;;;;;;10.27;5.85;;;12.40;99.90;;;;;;4997373;28;20046;-59
2022/05/01 10:13:51;;;;;;;11.63;5.35;;;12.20;99.90;;;;;;4997253;28;20046;-59
2022/05/01 10:16:17;;;;;;;8.30;4.82;;;12.50;99.90;;;;;;4997295;28;20057;-59
2022/05/01 10:18:44;;;;;;;8.60;5.28;;;12.50;99.90;;;;;;4996651;28;20050;-59
2022/05/01 10:21:11;;;;;;;6.05;5.05;;;13.10;99.90;;;;;;4997064;28;20077;-59
2022/05/01 10:23:37;;;;;;;6.85;5.07;;;12.80;99.90;;;;;;4997161;28;20097;-59
2022/05/01 10:26:19;;;;;;;7.68;5.18;;;13.20;99.90;;;;;;4997092;28;20078;-59
2022/05/01 10:28:56;;;;;;;6.60;5.00;;;13.40;99.90;;;;;;4997607;28;20429;-59
2022/05/01 10:35:05;;;;;;;5.82;4.57;;;13.90;99.90;;;;;;4996979;28;20050;-59
2022/05/01 10:37:52;;;;;;;9.05;5.40;;;13.80;99.90;;;;;;4997609;28;20042;-59
2022/05/01 10:40:18;;;;;;;8.93;4.90;;;13.60;99.90;;;;;;4997416;28;20048;-59
2022/05/01 10:42:46;;;;;;;6.50;4.88;;;13.60;99.90;;;;;;4997616;28;20121;-59
2022/05/01 10:45:21;;;;;;;8.50;5.10;;;14.10;99.90;;;;;;4996757;28;20082;-59
2022/05/01 10:47:52;;;;;;;6.50;4.97;;;14.60;99.90;;;;;;4996642;28;20490;-59
2022/05/01 10:50:28;;;;;;;8.43;5.35;;;13.50;99.90;;;;;;4996618;28;20506;-59
2022/05/01 10:53:11;;;;;;;6.95;5.50;;;13.70;99.90;;;;;;4996587;28;20125;-61
2022/05/01 10:56:22;;;;;;;10.52;5.40;;;13.20;99.90;;;;;;4995400;28;20505;-60
2022/05/01 10:58:48;;;;;;;8.10;5.88;;;13.40;99.90;;;;;;4985919;28;20082;-59
2022/05/01 11:01:14;;;;;;;7.45;5.25;;;13.50;99.90;;;;;;4996515;28;20528;-60
2022/05/01 11:03:50;;;;;;;7.43;4.97;;;13.20;99.90;;;;;;4996915;28;20046;-59
2022/05/01 11:06:20;;;;;;;8.10;5.30;;;13.30;99.90;;;;;;4996425;28;20414;-59
2022/05/01 11:08:47;;;;;;;6.70;4.80;;;13.70;99.90;;;;;;4995371;28;20489;-60
2022/05/01 11:11:13;;;;;;;6.32;4.85;;;15.10;99.90;;;;;;4996212;28;20089;-59
2022/05/01 11:13:41;;;;;;;5.65;4.90;;;13.90;99.90;;;;;;4996236;28;20128;-59
2022/05/01 11:16:09;;;;;;;5.93;4.70;;;13.60;99.90;;;;;;4996642;28;20053;-59
2022/05/01 11:18:40;;;;;;;7.88;5.05;;;13.70;99.90;;;;;;4996133;28;20042;-60
2022/05/01 11:21:22;;;;;;;5.43;4.43;;;14.30;99.90;;;;;;4995807;28;20145;-59
2022/05/01 11:24:04;;;;;;;5.95;4.85;;;14.30;99.90;;;;;;4996130;28;20085;-59
2022/05/01 11:26:30;;;;;;;6.55;4.97;;;14.30;99.90;;;;;;4996032;28;20506;-59
2022/05/01 11:29:22;;;;;;;6.88;5.25;;;14.30;99.90;;;;;;4995637;28;20502;-59
2022/05/01 11:31:48;;;;;;;7.50;5.40;;;14.70;99.90;;;;;;4993706;28;20409;-59
2022/05/01 11:34:36;;;;;;;7.70;4.82;;;14.40;99.90;;;;;;4995765;28;20485;-59
2022/05/01 11:37:08;;;;;;;7.30;4.85;;;14.40;99.90;;;;;;4996155;28;20493;-59
2022/05/01 11:39:46;;;;;;;6.68;4.53;;;15.10;99.90;;;;;;4996315;28;20042;-59
2022/05/01 11:42:27;;;;;;;7.82;5.05;;;14.70;99.90;;;;;;4995710;28;20494;-59
2022/05/01 11:44:57;;;;;;;5.93;4.95;;;15.00;99.90;;;;;;4995670;28;20108;-60
2022/05/01 11:47:25;;;;;;;7.93;5.50;;;14.80;99.90;;;;;;4996171;28;20049;-59
2022/05/01 11:49:51;;;;;;;5.43;4.85;;;14.20;99.90;;;;;;4995573;28;20140;-59
2022/05/01 11:52:17;;;;;;;;;;;14.40;99.90;;;;;;4995900;28;20506;-59
2022/05/01 11:54:57;;;;;;;8.13;5.30;;;13.90;99.90;;;;;;4995129;28;20370;-59
2022/05/01 12:03:07;;;;;;;6.13;5.32;;;14.60;99.90;;;;;;4995354;28;20138;-59
2022/05/01 12:05:43;;;;;;;6.25;4.93;;;14.20;99.90;;;;;;4994755;28;20387;-59
2022/05/01 12:08:09;;;;;;;;;;;14.20;99.90;;;;;;4994467;28;20110;-59
2022/05/01 12:10:42;;;;;;;7.03;5.00;;;14.20;99.90;;;;;;4995158;28;19922;-60
2022/05/01 12:13:27;;;;;;;10.20;5.03;;;13.90;99.90;;;;;;4995201;28;20054;-58
2022/05/01 12:15:54;;;;;;;5.95;4.70;;;14.20;99.90;;;;;;4995486;28;20054;-58
2022/05/01 12:18:21;;;;;;;6.35;4.57;;;14.00;99.90;;;;;;4994720;28;20558;-59
2022/05/01 12:20:47;;;;;;;7.07;4.75;;;14.40;99.90;;;;;;4995644;28;20104;-59
2022/05/01 12:23:14;;;;;;;8.52;4.72;;;13.70;99.90;;;;;;4995021;28;20050;-59
2022/05/01 12:25:41;;;;;;;6.18;4.85;;;13.80;99.90;;;;;;4994819;28;20482;-61
2022/05/01 12:28:08;;;;;;;7.65;4.80;;;13.90;99.90;;;;;;4993893;28;20436;-60
2022/05/01 12:30:34;;;;;;;7.53;4.40;;;13.60;99.90;;;;;;4994861;28;20132;-59
2022/05/01 12:33:00;;;;;;;;;;;13.90;99.90;;;;;;4995115;28;20495;-60
2022/05/01 12:35:26;;;;;;;5.43;4.32;;;14.10;99.90;;;;;;4994917;28;20277;-60
2022/05/01 12:37:51;;;;;;;7.55;4.30;;;13.90;99.90;;;;;;4993605;28;20046;-59
2022/05/01 12:45:53;;;;;;;7.22;3.90;;;13.70;99.90;;;;;;4995327;28;20493;-59
2022/05/01 12:48:21;;;;;;;6.82;3.55;;;13.90;99.90;;;;;;4994727;28;20057;-59
2022/05/01 12:50:51;;;;;;;5.93;3.95;;;13.80;99.90;;;;;;4994475;28;20042;-59
2022/05/01 12:53:21;;;;;;;5.40;4.13;;;14.00;99.90;;;;;;4994781;28;20153;-59
2022/05/01 12:55:47;;;;;;;6.13;3.83;;;14.30;99.90;;;;;;4994005;28;20540;-58
2022/05/01 12:58:12;;;;;;;;;;;14.00;99.90;;;;;;4995327;28;20054;-59
2022/05/01 13:00:44;;;;;;;15.07;12.43;;;14.10;99.90;;;;;;4994259;28;19928;-58
2022/05/01 13:03:40;;;;;;;7.45;3.92;;;14.00;99.90;;;;;;4994326;28;20050;-59
2022/05/01 13:06:17;;;;;;;7.22;5.15;;;14.40;99.90;;;;;;4994338;28;20038;-59
2022/05/01 13:08:46;;;;;;;5.57;4.30;;;14.50;99.90;;;;;;4994227;28;20058;-59
2022/05/01 13:11:23;;;;;;;6.28;5.10;;;14.70;99.90;;;;;;4994221;28;20129;-59
2022/05/01 13:14:19;;;;;;;12.25;8.57;;;15.10;99.90;;;;;;4993045;28;20101;-59
2022/05/01 13:16:47;;;;;;;8.23;3.97;;;14.60;99.90;;;;;;4989634;28;20058;-59
2022/05/01 13:19:19;;;;;;;25.85;21.77;;;14.90;99.90;;;;;;4994351;28;20050;-59
2022/05/01 13:21:50;;;;;;;13.18;9.57;;;14.70;99.90;;;;;;4992089;28;20054;-59
2022/05/01 13:24:29;;;;;;;7.18;4.97;;;14.70;99.90;;;;;;4994623;28;20077;-60
2022/05/01 13:26:56;;;;;;;5.15;4.00;;;14.70;99.90;;;;;;4994644;28;20042;-59
2022/05/01 13:29:23;;;;;;;4.45;3.97;;;14.60;99.90;;;;;;4993367;28;20501;-59
2022/05/01 13:31:49;;;;;;;5.35;4.20;;;14.80;99.90;;;;;;4993743;28;20056;-59
2022/05/01 13:34:15;;;;;;;3.92;3.42;;;14.20;99.90;;;;;;4993899;28;20382;-58
2022/05/01 13:36:41;;;;;;;4.93;3.08;;;14.40;99.90;;;;;;4993939;28;20057;-61
2022/05/01 13:39:08;;;;;;;5.93;3.38;;;14.70;99.90;;;;;;4993943;28;20398;-60
2022/05/01 13:46:54;;;;;;;4.75;3.10;;;14.10;99.90;;;;;;4994642;28;20054;-59
2022/05/01 13:49:21;;;;;;;5.72;3.17;;;14.10;99.90;;;;;;4993858;28;20050;-58
2022/05/01 13:51:47;;;;;;;7.55;3.42;;;14.10;99.90;;;;;;4994536;28;20367;-59